sensor_id;sensor_type;location;lat;lon;timestamp;temperature;humidity
4356;DHT22;64374;51.482;7.408;2023-12-04T00:00:00;4.00;99.90
4356;DHT22;64374;51.482;7.408;2023-12-04T00:02:56;3.30;99.90
4356;DHT22;64374;51.482;7.408;2023-12-04T00:05:45;3.50;99.90
4356;DHT22;64374;51.482;7.408;2023-12-04T00:08:32;3.50;99.90
4356;DHT22;64374;51.482;7.408;2023-12-04T00:11:25;3.50;99.90
4356;DHT22;64374;51.482;7.408;2023-12-04T00:14:15;3.60;99.90
4356;DHT22;64374;51.482;7.408;2023-12-04T00:17:03;3.50;99.90
4356;DHT22;64374;51.482;7.408;2023-12-04T00:19:49;3.40;99.90
4356;DHT22;64374;51.482;7.408;2023-12-04T00:22:37;3.40;99.90
4356;DHT22;64374;51.482;7.408;2023-12-04T00:25:25;3.40;99.90
4356;DHT22;64374;51.482;7.408;2023-12-04T00:28:12;2.90;99.90
4356;DHT22;64374;51.482;7.408;2023-12-04T00:30:58;3.40;99.90
4356;DHT22;64374;51.482;7.408;2023-12-04T00:33:46;3.20;99.90
4356;DHT22;64374;51.482;7.408;2023-12-04T00:36:36;3.00;99.90
4356;DHT22;64374;51.482;7.408;2023-12-04T00:39:04;3.10;99.90
4356;DHT22;64374;51.482;7.408;2023-12-04T00:41:32;2.90;99.90
4356;DHT22;64374;51.482;7.408;2023-12-04T00:44:05;3.10;99.90
4356;DHT22;64374;51.482;7.408;2023-12-04T00:46:41;2.60;99.90
4356;DHT22;64374;51.482;7.408;2023-12-04T00:49:10;2.80;99.90
4356;DHT22;64374;51.482;7.408;2023-12-04T00:51:38;2.70;99.90
4356;DHT22;64374;51.482;7.408;2023-12-04T00:54:06;2.50;99.90
4356;DHT22;64374;51.482;7.408;2023-12-04T00:56:37;2.90;99.90
4356;DHT22;64374;51.482;7.408;2023-12-04T00:59:05;2.80;99.90
4356;DHT22;64374;51.482;7.408;2023-12-04T01:01:54;2.70;99.90
4356;DHT22;64374;51.482;7.408;2023-12-04T01:04:42;3.20;99.90
4356;DHT22;64374;51.482;7.408;2023-12-04T01:07:31;2.80;99.90
4356;DHT22;64374;51.482;7.408;2023-12-04T01:10:22;3.10;99.90
4356;DHT22;64374;51.482;7.408;2023-12-04T01:13:09;3.30;99.90
4356;DHT22;64374;51.482;7.408;2023-12-04T01:15:56;3.10;99.90
4356;DHT22;64374;51.482;7.408;2023-12-04T01:18:45;3.40;99.90
4356;DHT22;64374;51.482;7.408;2023-12-04T01:21:35;3.30;99.90
4356;DHT22;64374;51.482;7.408;2023-12-04T01:24:22;3.20;99.90
4356;DHT22;64374;51.482;7.408;2023-12-04T01:27:11;3.50;99.90
4356;DHT22;64374;51.482;7.408;2023-12-04T01:30:00;3.50;99.90
4356;DHT22;64374;51.482;7.408;2023-12-04T01:32:47;3.60;99.90
4356;DHT22;64374;51.482;7.408;2023-12-04T01:35:33;3.70;99.90
4356;DHT22;64374;51.482;7.408;2023-12-04T01:38:23;3.60;99.90
4356;DHT22;64374;51.482;7.408;2023-12-04T01:40:51;3.30;99.90
4356;DHT22;64374;51.482;7.408;2023-12-04T01:43:20;3.60;99.90
4356;DHT22;64374;51.482;7.408;2023-12-04T01:45:48;3.10;99.90
4356;DHT22;64374;51.482;7.408;2023-12-04T01:48:17;3.30;99.90
4356;DHT22;64374;51.482;7.408;2023-12-04T01:50:45;3.30;99.90
4356;DHT22;64374;51.482;7.408;2023-12-04T01:53:13;3.10;99.90
4356;DHT22;64374;51.482;7.408;2023-12-04T01:55:42;3.40;99.90
4356;DHT22;64374;51.482;7.408;2023-12-04T01:58:13;3.70;99.90
4356;DHT22;64374;51.482;7.408;2023-12-04T02:00:46;3.70;99.90
4356;DHT22;64374;51.482;7.408;2023-12-04T02:03:14;3.70;99.90
4356;DHT22;64374;51.482;7.408;2023-12-04T02:05:45;3.80;99.90
4356;DHT22;64374;51.482;7.408;2023-12-04T02:08:13;3.70;99.90
4356;DHT22;64374;51.482;7.408;2023-12-04T02:10:46;3.60;99.90
4356;DHT22;64374;51.482;7.408;2023-12-04T02:13:16;3.60;99.90
4356;DHT22;64374;51.482;7.408;2023-12-04T02:15:44;3.70;99.90
4356;DHT22;64374;51.482;7.408;2023-12-04T02:18:13;3.50;99.90
4356;DHT22;64374;51.482;7.408;2023-12-04T02:20:48;3.60;99.90
4356;DHT22;64374;51.482;7.408;2023-12-04T02:23:18;3.60;99.90
4356;DHT22;64374;51.482;7.408;2023-12-04T02:25:47;3.50;99.90
4356;DHT22;64374;51.482;7.408;2023-12-04T02:28:16;3.30;99.90
4356;DHT22;64374;51.482;7.408;2023-12-04T02:30:44;3.30;99.90
4356;DHT22;64374;51.482;7.408;2023-12-04T02:33:14;3.30;99.90
4356;DHT22;64374;51.482;7.408;2023-12-04T02:35:51;3.30;99.90
4356;DHT22;64374;51.482;7.408;2023-12-04T02:38:39;2.80;99.90
4356;DHT22;64374;51.482;7.408;2023-12-04T02:41:27;3.20;99.90
4356;DHT22;64374;51.482;7.408;2023-12-04T02:44:14;3.20;99.90
4356;DHT22;64374;51.482;7.408;2023-12-04T02:47:02;3.40;99.90
4356;DHT22;64374;51.482;7.408;2023-12-04T02:49:49;3.50;99.90
4356;DHT22;64374;51.482;7.408;2023-12-04T02:52:36;3.40;99.90
4356;DHT22;64374;51.482;7.408;2023-12-04T02:55:25;3.60;99.90
4356;DHT22;64374;51.482;7.408;2023-12-04T02:58:16;3.60;99.90
4356;DHT22;64374;51.482;7.408;2023-12-04T03:01:04;3.20;99.90
4356;DHT22;64374;51.482;7.408;2023-12-04T03:03:51;3.40;99.90
4356;DHT22;64374;51.482;7.408;2023-12-04T03:06:37;3.30;99.90
4356;DHT22;64374;51.482;7.408;2023-12-04T03:09:26;3.60;99.90
4356;DHT22;64374;51.482;7.408;2023-12-04T03:12:33;3.50;99.90
4356;DHT22;64374;51.482;7.408;2023-12-04T03:15:24;3.20;99.90
4356;DHT22;64374;51.482;7.408;2023-12-04T03:17:55;3.60;99.90
4356;DHT22;64374;51.482;7.408;2023-12-04T03:20:23;4.00;99.90
4356;DHT22;64374;51.482;7.408;2023-12-04T03:22:51;4.10;99.90
4356;DHT22;64374;51.482;7.408;2023-12-04T03:25:19;4.50;99.90
4356;DHT22;64374;51.482;7.408;2023-12-04T03:27:47;4.50;99.90
4356;DHT22;64374;51.482;7.408;2023-12-04T03:30:15;4.20;99.90
4356;DHT22;64374;51.482;7.408;2023-12-04T03:32:48;4.40;99.90
4356;DHT22;64374;51.482;7.408;2023-12-04T03:35:23;4.60;99.90
4356;DHT22;64374;51.482;7.408;2023-12-04T03:37:52;4.10;99.90
4356;DHT22;64374;51.482;7.408;2023-12-04T03:40:21;4.40;99.90
4356;DHT22;64374;51.482;7.408;2023-12-04T03:42:49;4.50;99.90
4356;DHT22;64374;51.482;7.408;2023-12-04T03:45:17;4.60;99.90
4356;DHT22;64374;51.482;7.408;2023-12-04T03:47:48;4.10;99.90
4356;DHT22;64374;51.482;7.408;2023-12-04T03:50:16;3.70;99.90
4356;DHT22;64374;51.482;7.408;2023-12-04T03:52:44;4.00;99.90
4356;DHT22;64374;51.482;7.408;2023-12-04T03:55:15;4.60;99.90
4356;DHT22;64374;51.482;7.408;2023-12-04T03:57:43;5.10;99.90
4356;DHT22;64374;51.482;7.408;2023-12-04T04:00:12;5.00;99.90
4356;DHT22;64374;51.482;7.408;2023-12-04T04:02:42;4.90;99.90
4356;DHT22;64374;51.482;7.408;2023-12-04T04:05:12;4.50;99.90
4356;DHT22;64374;51.482;7.408;2023-12-04T04:07:40;4.60;99.90
4356;DHT22;64374;51.482;7.408;2023-12-04T04:10:08;5.00;99.90
4356;DHT22;64374;51.482;7.408;2023-12-04T04:12:39;5.10;99.90
4356;DHT22;64374;51.482;7.408;2023-12-04T04:15:09;5.30;99.90
4356;DHT22;64374;51.482;7.408;2023-12-04T04:17:55;5.10;99.90
4356;DHT22;64374;51.482;7.408;2023-12-04T04:20:46;5.00;99.90
4356;DHT22;64374;51.482;7.408;2023-12-04T04:23:32;5.40;99.90
4356;DHT22;64374;51.482;7.408;2023-12-04T04:26:19;4.80;99.90
4356;DHT22;64374;51.482;7.408;2023-12-04T04:29:06;5.20;99.90
4356;DHT22;64374;51.482;7.408;2023-12-04T04:31:52;5.30;99.90
4356;DHT22;64374;51.482;7.408;2023-12-04T04:34:39;5.10;99.90
4356;DHT22;64374;51.482;7.408;2023-12-04T04:37:27;5.20;99.90
4356;DHT22;64374;51.482;7.408;2023-12-04T04:40:13;5.10;99.90
4356;DHT22;64374;51.482;7.408;2023-12-04T04:43:03;5.00;99.90
4356;DHT22;64374;51.482;7.408;2023-12-04T04:45:54;5.20;99.90
4356;DHT22;64374;51.482;7.408;2023-12-04T04:48:43;5.20;99.90
4356;DHT22;64374;51.482;7.408;2023-12-04T04:51:29;4.90;99.90
4356;DHT22;64374;51.482;7.408;2023-12-04T04:54:18;5.00;99.90
4356;DHT22;64374;51.482;7.408;2023-12-04T04:57:05;4.10;99.90
4356;DHT22;64374;51.482;7.408;2023-12-04T04:59:52;4.50;99.90
4356;DHT22;64374;51.482;7.408;2023-12-04T05:02:38;4.80;99.90
4356;DHT22;64374;51.482;7.408;2023-12-04T05:05:27;4.60;99.90
4356;DHT22;64374;51.482;7.408;2023-12-04T05:08:15;4.40;99.90
4356;DHT22;64374;51.482;7.408;2023-12-04T05:11:04;4.50;99.90
4356;DHT22;64374;51.482;7.408;2023-12-04T05:13:50;3.70;99.90
4356;DHT22;64374;51.482;7.408;2023-12-04T05:16:39;4.10;99.90
4356;DHT22;64374;51.482;7.408;2023-12-04T05:19:25;4.50;99.90
4356;DHT22;64374;51.482;7.408;2023-12-04T05:22:12;4.60;99.90
4356;DHT22;64374;51.482;7.408;2023-12-04T05:25:00;4.80;99.90
4356;DHT22;64374;51.482;7.408;2023-12-04T05:27:48;4.80;99.90
4356;DHT22;64374;51.482;7.408;2023-12-04T05:30:35;4.70;99.90
4356;DHT22;64374;51.482;7.408;2023-12-04T05:33:21;4.40;99.90
4356;DHT22;64374;51.482;7.408;2023-12-04T05:36:08;4.30;99.90
4356;DHT22;64374;51.482;7.408;2023-12-04T05:38:55;4.20;99.90
4356;DHT22;64374;51.482;7.408;2023-12-04T05:41:45;4.50;99.90
4356;DHT22;64374;51.482;7.408;2023-12-04T05:44:34;4.30;99.90
4356;DHT22;64374;51.482;7.408;2023-12-04T05:47:20;4.10;99.90
4356;DHT22;64374;51.482;7.408;2023-12-04T05:50:08;4.40;99.90
4356;DHT22;64374;51.482;7.408;2023-12-04T05:52:54;4.40;99.90
4356;DHT22;64374;51.482;7.408;2023-12-04T05:55:43;4.60;99.90
4356;DHT22;64374;51.482;7.408;2023-12-04T05:58:31;4.90;99.90
4356;DHT22;64374;51.482;7.408;2023-12-04T06:01:19;5.20;99.90
4356;DHT22;64374;51.482;7.408;2023-12-04T06:04:07;5.20;99.90
4356;DHT22;64374;51.482;7.408;2023-12-04T06:06:56;5.30;99.90
4356;DHT22;64374;51.482;7.408;2023-12-04T06:09:43;5.40;99.90
4356;DHT22;64374;51.482;7.408;2023-12-04T06:12:31;5.50;99.90
4356;DHT22;64374;51.482;7.408;2023-12-04T06:15:17;5.50;99.90
4356;DHT22;64374;51.482;7.408;2023-12-04T06:18:08;5.50;99.90
4356;DHT22;64374;51.482;7.408;2023-12-04T06:20:54;5.70;99.90
4356;DHT22;64374;51.482;7.408;2023-12-04T06:23:41;5.80;99.90
4356;DHT22;64374;51.482;7.408;2023-12-04T06:26:28;5.50;99.90
4356;DHT22;64374;51.482;7.408;2023-12-04T06:29:15;5.90;99.90
4356;DHT22;64374;51.482;7.408;2023-12-04T06:32:02;5.90;99.90
4356;DHT22;64374;51.482;7.408;2023-12-04T06:34:51;6.10;99.90
4356;DHT22;64374;51.482;7.408;2023-12-04T06:37:39;6.20;99.90
4356;DHT22;64374;51.482;7.408;2023-12-04T06:40:26;6.30;99.90
4356;DHT22;64374;51.482;7.408;2023-12-04T06:43:12;6.30;99.90
4356;DHT22;64374;51.482;7.408;2023-12-04T06:46:17;6.50;99.90
4356;DHT22;64374;51.482;7.408;2023-12-04T06:49:08;6.60;99.90
4356;DHT22;64374;51.482;7.408;2023-12-04T06:51:57;6.80;99.90
4356;DHT22;64374;51.482;7.408;2023-12-04T06:54:47;6.10;99.90
4356;DHT22;64374;51.482;7.408;2023-12-04T06:57:33;5.90;99.90
4356;DHT22;64374;51.482;7.408;2023-12-04T07:00:25;6.10;99.90
4356;DHT22;64374;51.482;7.408;2023-12-04T07:03:12;6.20;99.90
4356;DHT22;64374;51.482;7.408;2023-12-04T07:06:01;5.90;99.90
4356;DHT22;64374;51.482;7.408;2023-12-04T07:08:51;5.90;99.90
4356;DHT22;64374;51.482;7.408;2023-12-04T07:11:38;5.20;99.90
4356;DHT22;64374;51.482;7.408;2023-12-04T07:14:25;5.60;99.90
4356;DHT22;64374;51.482;7.408;2023-12-04T07:17:11;5.80;99.90
4356;DHT22;64374;51.482;7.408;2023-12-04T07:19:58;5.90;99.90
4356;DHT22;64374;51.482;7.408;2023-12-04T07:22:52;5.80;99.90
4356;DHT22;64374;51.482;7.408;2023-12-04T07:25:47;5.90;99.90
4356;DHT22;64374;51.482;7.408;2023-12-04T07:28:34;5.90;99.90
4356;DHT22;64374;51.482;7.408;2023-12-04T07:31:21;5.70;99.90
4356;DHT22;64374;51.482;7.408;2023-12-04T07:34:08;5.50;99.90
4356;DHT22;64374;51.482;7.408;2023-12-04T07:36:57;5.30;99.90
4356;DHT22;64374;51.482;7.408;2023-12-04T07:39:43;5.20;99.90
4356;DHT22;64374;51.482;7.408;2023-12-04T07:42:32;5.30;99.90
4356;DHT22;64374;51.482;7.408;2023-12-04T07:45:19;4.60;99.90
4356;DHT22;64374;51.482;7.408;2023-12-04T07:48:06;4.70;99.90
4356;DHT22;64374;51.482;7.408;2023-12-04T07:50:55;4.60;99.90
4356;DHT22;64374;51.482;7.408;2023-12-04T07:53:42;4.70;99.90
4356;DHT22;64374;51.482;7.408;2023-12-04T07:56:31;4.40;99.90
4356;DHT22;64374;51.482;7.408;2023-12-04T07:59:21;3.60;99.90
4356;DHT22;64374;51.482;7.408;2023-12-04T08:02:08;3.40;99.90
4356;DHT22;64374;51.482;7.408;2023-12-04T08:04:58;3.90;99.90
4356;DHT22;64374;51.482;7.408;2023-12-04T08:07:45;4.00;99.90
4356;DHT22;64374;51.482;7.408;2023-12-04T08:10:33;4.90;99.90
4356;DHT22;64374;51.482;7.408;2023-12-04T08:13:20;3.90;99.90
4356;DHT22;64374;51.482;7.408;2023-12-04T08:16:13;4.60;99.90
4356;DHT22;64374;51.482;7.408;2023-12-04T08:19:01;4.70;99.90
4356;DHT22;64374;51.482;7.408;2023-12-04T08:21:48;4.30;99.90
4356;DHT22;64374;51.482;7.408;2023-12-04T08:24:34;4.30;99.90
4356;DHT22;64374;51.482;7.408;2023-12-04T08:27:20;4.50;99.90
4356;DHT22;64374;51.482;7.408;2023-12-04T08:30:07;5.10;99.90
4356;DHT22;64374;51.482;7.408;2023-12-04T08:32:56;5.20;99.90
4356;DHT22;64374;51.482;7.408;2023-12-04T08:35:42;5.30;99.90
4356;DHT22;64374;51.482;7.408;2023-12-04T08:38:29;5.30;99.90
4356;DHT22;64374;51.482;7.408;2023-12-04T08:41:16;5.00;99.90
4356;DHT22;64374;51.482;7.408;2023-12-04T08:44:02;5.30;99.90
4356;DHT22;64374;51.482;7.408;2023-12-04T08:46:49;5.00;99.90
4356;DHT22;64374;51.482;7.408;2023-12-04T08:49:37;5.40;99.90
4356;DHT22;64374;51.482;7.408;2023-12-04T08:52:33;5.60;99.90
4356;DHT22;64374;51.482;7.408;2023-12-04T08:55:20;5.40;99.90
4356;DHT22;64374;51.482;7.408;2023-12-04T08:58:06;5.80;99.90
4356;DHT22;64374;51.482;7.408;2023-12-04T09:00:53;5.90;99.90
4356;DHT22;64374;51.482;7.408;2023-12-04T09:03:41;5.70;99.90
4356;DHT22;64374;51.482;7.408;2023-12-04T09:06:30;6.00;99.90
4356;DHT22;64374;51.482;7.408;2023-12-04T09:09:20;5.40;99.90
4356;DHT22;64374;51.482;7.408;2023-12-04T09:12:09;5.90;99.90
4356;DHT22;64374;51.482;7.408;2023-12-04T09:14:55;5.60;99.90
4356;DHT22;64374;51.482;7.408;2023-12-04T09:17:45;5.40;99.90
4356;DHT22;64374;51.482;7.408;2023-12-04T09:20:31;5.80;99.90
4356;DHT22;64374;51.482;7.408;2023-12-04T09:23:19;6.00;99.90
4356;DHT22;64374;51.482;7.408;2023-12-04T09:26:06;6.10;99.90
4356;DHT22;64374;51.482;7.408;2023-12-04T09:28:52;6.60;99.90
4356;DHT22;64374;51.482;7.408;2023-12-04T09:31:39;6.50;99.90
4356;DHT22;64374;51.482;7.408;2023-12-04T09:34:33;6.60;99.90
4356;DHT22;64374;51.482;7.408;2023-12-04T09:37:19;6.80;99.90
4356;DHT22;64374;51.482;7.408;2023-12-04T09:40:08;6.80;99.90
4356;DHT22;64374;51.482;7.408;2023-12-04T09:42:55;6.70;99.90
4356;DHT22;64374;51.482;7.408;2023-12-04T09:45:42;6.70;99.90
4356;DHT22;64374;51.482;7.408;2023-12-04T09:48:29;6.90;99.90
4356;DHT22;64374;51.482;7.408;2023-12-04T09:51:17;6.10;99.90
4356;DHT22;64374;51.482;7.408;2023-12-04T09:54:04;6.20;99.90
4356;DHT22;64374;51.482;7.408;2023-12-04T09:56:53;6.40;99.90
4356;DHT22;64374;51.482;7.408;2023-12-04T09:59:21;6.20;99.90
4356;DHT22;64374;51.482;7.408;2023-12-04T10:01:51;6.40;99.90
4356;DHT22;64374;51.482;7.408;2023-12-04T10:04:20;6.40;99.90
4356;DHT22;64374;51.482;7.408;2023-12-04T10:06:48;6.70;99.90
4356;DHT22;64374;51.482;7.408;2023-12-04T10:09:17;6.70;99.90
4356;DHT22;64374;51.482;7.408;2023-12-04T10:12:09;6.60;99.90
4356;DHT22;64374;51.482;7.408;2023-12-04T10:15:03;6.80;99.90
4356;DHT22;64374;51.482;7.408;2023-12-04T10:17:33;7.10;99.90
4356;DHT22;64374;51.482;7.408;2023-12-04T10:20:05;7.30;99.90
4356;DHT22;64374;51.482;7.408;2023-12-04T10:22:39;7.40;99.90
4356;DHT22;64374;51.482;7.408;2023-12-04T10:25:16;7.20;99.90
4356;DHT22;64374;51.482;7.408;2023-12-04T10:27:46;6.70;99.90
4356;DHT22;64374;51.482;7.408;2023-12-04T10:30:24;6.50;99.90
4356;DHT22;64374;51.482;7.408;2023-12-04T10:32:56;6.70;99.90
4356;DHT22;64374;51.482;7.408;2023-12-04T10:35:28;6.80;99.90
4356;DHT22;64374;51.482;7.408;2023-12-04T10:37:57;6.80;99.90
4356;DHT22;64374;51.482;7.408;2023-12-04T10:40:26;6.70;99.90
4356;DHT22;64374;51.482;7.408;2023-12-04T10:45:49;6.30;99.90
4356;DHT22;64374;51.482;7.408;2023-12-04T10:48:18;5.80;99.90
4356;DHT22;64374;51.482;7.408;2023-12-04T10:50:48;6.10;99.90
4356;DHT22;64374;51.482;7.408;2023-12-04T10:53:17;5.30;99.90
4356;DHT22;64374;51.482;7.408;2023-12-04T10:55:46;5.70;99.90
4356;DHT22;64374;51.482;7.408;2023-12-04T10:58:16;5.80;99.90
4356;DHT22;64374;51.482;7.408;2023-12-04T11:00:49;5.60;99.90
4356;DHT22;64374;51.482;7.408;2023-12-04T11:03:18;5.90;99.90
4356;DHT22;64374;51.482;7.408;2023-12-04T11:05:51;4.90;99.90
4356;DHT22;64374;51.482;7.408;2023-12-04T11:08:20;5.10;99.90
4356;DHT22;64374;51.482;7.408;2023-12-04T11:11:10;5.60;99.90
4356;DHT22;64374;51.482;7.408;2023-12-04T11:14:00;5.90;99.90
4356;DHT22;64374;51.482;7.408;2023-12-04T11:16:48;5.80;99.90
4356;DHT22;64374;51.482;7.408;2023-12-04T11:19:38;5.90;99.90
4356;DHT22;64374;51.482;7.408;2023-12-04T11:22:25;5.80;99.90
4356;DHT22;64374;51.482;7.408;2023-12-04T11:25:12;5.90;99.90
4356;DHT22;64374;51.482;7.408;2023-12-04T11:27:59;6.30;99.90
4356;DHT22;64374;51.482;7.408;2023-12-04T11:30:46;6.40;99.90
4356;DHT22;64374;51.482;7.408;2023-12-04T11:33:37;6.10;99.90
4356;DHT22;64374;51.482;7.408;2023-12-04T11:36:24;6.00;99.90
4356;DHT22;64374;51.482;7.408;2023-12-04T11:39:11;5.60;99.90
4356;DHT22;64374;51.482;7.408;2023-12-04T11:41:58;5.90;99.90
4356;DHT22;64374;51.482;7.408;2023-12-04T11:44:47;6.30;99.90
4356;DHT22;64374;51.482;7.408;2023-12-04T11:47:48;6.30;99.90
4356;DHT22;64374;51.482;7.408;2023-12-04T11:50:38;6.20;99.90
4356;DHT22;64374;51.482;7.408;2023-12-04T11:53:28;6.30;99.90
4356;DHT22;64374;51.482;7.408;2023-12-04T11:56:15;5.90;99.90
4356;DHT22;64374;51.482;7.408;2023-12-04T11:59:05;6.30;99.90
4356;DHT22;64374;51.482;7.408;2023-12-04T12:01:33;6.00;99.90
4356;DHT22;64374;51.482;7.408;2023-12-04T12:04:02;6.00;99.90
4356;DHT22;64374;51.482;7.408;2023-12-04T12:06:33;5.70;99.90
4356;DHT22;64374;51.482;7.408;2023-12-04T12:09:02;6.00;99.90
4356;DHT22;64374;51.482;7.408;2023-12-04T12:11:33;6.20;99.90
4356;DHT22;64374;51.482;7.408;2023-12-04T12:14:02;5.90;99.90
4356;DHT22;64374;51.482;7.408;2023-12-04T12:16:31;5.70;99.90
4356;DHT22;64374;51.482;7.408;2023-12-04T12:19:00;6.10;99.90
4356;DHT22;64374;51.482;7.408;2023-12-04T12:21:28;6.00;99.90
4356;DHT22;64374;51.482;7.408;2023-12-04T12:23:58;6.00;99.90
4356;DHT22;64374;51.482;7.408;2023-12-04T12:26:26;6.00;99.90
4356;DHT22;64374;51.482;7.408;2023-12-04T12:28:54;5.80;99.90
4356;DHT22;64374;51.482;7.408;2023-12-04T12:31:24;5.80;99.90
4356;DHT22;64374;51.482;7.408;2023-12-04T12:33:55;5.80;99.90
4356;DHT22;64374;51.482;7.408;2023-12-04T12:36:23;5.90;99.90
4356;DHT22;64374;51.482;7.408;2023-12-04T12:38:52;6.00;99.90
4356;DHT22;64374;51.482;7.408;2023-12-04T12:41:21;6.00;99.90
4356;DHT22;64374;51.482;7.408;2023-12-04T12:43:51;6.00;99.90
4356;DHT22;64374;51.482;7.408;2023-12-04T12:46:19;6.30;99.90
4356;DHT22;64374;51.482;7.408;2023-12-04T12:48:49;6.30;99.90
4356;DHT22;64374;51.482;7.408;2023-12-04T12:51:20;6.20;99.90
4356;DHT22;64374;51.482;7.408;2023-12-04T12:53:48;5.80;99.90
4356;DHT22;64374;51.482;7.408;2023-12-04T12:56:18;6.00;99.90
4356;DHT22;64374;51.482;7.408;2023-12-04T12:59:08;5.70;99.90
4356;DHT22;64374;51.482;7.408;2023-12-04T13:01:56;6.00;99.90
4356;DHT22;64374;51.482;7.408;2023-12-04T13:04:46;6.00;99.90
4356;DHT22;64374;51.482;7.408;2023-12-04T13:07:35;6.10;99.90
4356;DHT22;64374;51.482;7.408;2023-12-04T13:10:06;6.00;99.90
4356;DHT22;64374;51.482;7.408;2023-12-04T13:12:35;6.10;99.90
4356;DHT22;64374;51.482;7.408;2023-12-04T13:15:07;6.40;99.90
4356;DHT22;64374;51.482;7.408;2023-12-04T13:17:36;6.40;99.90
4356;DHT22;64374;51.482;7.408;2023-12-04T13:20:11;6.10;99.90
4356;DHT22;64374;51.482;7.408;2023-12-04T13:22:40;6.10;99.90
4356;DHT22;64374;51.482;7.408;2023-12-04T13:25:09;6.10;99.90
4356;DHT22;64374;51.482;7.408;2023-12-04T13:27:39;6.10;99.90
4356;DHT22;64374;51.482;7.408;2023-12-04T13:30:11;6.30;99.90
4356;DHT22;64374;51.482;7.408;2023-12-04T13:32:40;6.50;99.90
4356;DHT22;64374;51.482;7.408;2023-12-04T13:35:10;6.70;99.90
4356;DHT22;64374;51.482;7.408;2023-12-04T13:37:38;6.50;99.90
4356;DHT22;64374;51.482;7.408;2023-12-04T13:40:07;6.50;99.90
4356;DHT22;64374;51.482;7.408;2023-12-04T13:42:40;6.50;99.90
4356;DHT22;64374;51.482;7.408;2023-12-04T13:45:27;6.60;99.90
4356;DHT22;64374;51.482;7.408;2023-12-04T13:48:14;6.60;99.90
4356;DHT22;64374;51.482;7.408;2023-12-04T13:51:04;6.70;99.90
4356;DHT22;64374;51.482;7.408;2023-12-04T13:53:50;6.90;99.90
4356;DHT22;64374;51.482;7.408;2023-12-04T13:56:46;6.70;99.90
4356;DHT22;64374;51.482;7.408;2023-12-04T13:59:38;7.00;99.90
4356;DHT22;64374;51.482;7.408;2023-12-04T14:02:29;6.90;99.90
4356;DHT22;64374;51.482;7.408;2023-12-04T14:05:21;6.90;99.90
4356;DHT22;64374;51.482;7.408;2023-12-04T14:08:09;6.30;99.90
4356;DHT22;64374;51.482;7.408;2023-12-04T14:10:59;6.00;99.90
4356;DHT22;64374;51.482;7.408;2023-12-04T14:13:45;6.20;99.90
4356;DHT22;64374;51.482;7.408;2023-12-04T14:16:33;6.30;99.90
4356;DHT22;64374;51.482;7.408;2023-12-04T14:19:21;6.20;99.90
4356;DHT22;64374;51.482;7.408;2023-12-04T14:22:08;6.10;99.90
4356;DHT22;64374;51.482;7.408;2023-12-04T14:24:57;5.90;99.90
4356;DHT22;64374;51.482;7.408;2023-12-04T14:27:45;5.90;99.90
4356;DHT22;64374;51.482;7.408;2023-12-04T14:30:31;5.60;99.90
4356;DHT22;64374;51.482;7.408;2023-12-04T14:33:17;5.70;99.90
4356;DHT22;64374;51.482;7.408;2023-12-04T14:36:08;5.80;99.90
4356;DHT22;64374;51.482;7.408;2023-12-04T14:39:09;5.90;99.90
4356;DHT22;64374;51.482;7.408;2023-12-04T14:41:57;5.90;99.90
4356;DHT22;64374;51.482;7.408;2023-12-04T14:44:26;6.10;99.90
4356;DHT22;64374;51.482;7.408;2023-12-04T14:46:54;6.00;99.90
4356;DHT22;64374;51.482;7.408;2023-12-04T14:49:40;6.20;99.90
4356;DHT22;64374;51.482;7.408;2023-12-04T14:52:31;5.80;99.90
4356;DHT22;64374;51.482;7.408;2023-12-04T14:55:19;5.70;99.90
4356;DHT22;64374;51.482;7.408;2023-12-04T14:58:23;6.00;99.90
4356;DHT22;64374;51.482;7.408;2023-12-04T15:01:23;5.90;99.90
4356;DHT22;64374;51.482;7.408;2023-12-04T15:04:27;6.00;99.90
4356;DHT22;64374;51.482;7.408;2023-12-04T15:07:47;6.10;99.90
4356;DHT22;64374;51.482;7.408;2023-12-04T15:11:03;6.20;99.90
4356;DHT22;64374;51.482;7.408;2023-12-04T15:14:22;5.80;99.90
4356;DHT22;64374;51.482;7.408;2023-12-04T15:17:18;5.80;99.90
4356;DHT22;64374;51.482;7.408;2023-12-04T15:20:17;5.70;99.90
4356;DHT22;64374;51.482;7.408;2023-12-04T15:23:19;5.90;99.90
4356;DHT22;64374;51.482;7.408;2023-12-04T15:26:09;5.80;99.90
4356;DHT22;64374;51.482;7.408;2023-12-04T15:28:57;5.90;99.90
4356;DHT22;64374;51.482;7.408;2023-12-04T15:31:42;6.10;99.90
4356;DHT22;64374;51.482;7.408;2023-12-04T15:34:29;5.90;99.90
4356;DHT22;64374;51.482;7.408;2023-12-04T15:37:14;5.80;99.90
4356;DHT22;64374;51.482;7.408;2023-12-04T15:40:02;5.80;99.90
4356;DHT22;64374;51.482;7.408;2023-12-04T15:42:48;6.00;99.90
4356;DHT22;64374;51.482;7.408;2023-12-04T15:45:36;6.20;99.90
4356;DHT22;64374;51.482;7.408;2023-12-04T15:48:21;6.30;99.90
4356;DHT22;64374;51.482;7.408;2023-12-04T15:51:08;6.00;99.90
4356;DHT22;64374;51.482;7.408;2023-12-04T15:53:57;5.70;99.90
4356;DHT22;64374;51.482;7.408;2023-12-04T15:56:44;5.80;99.90
4356;DHT22;64374;51.482;7.408;2023-12-04T16:02:41;5.90;99.90
4356;DHT22;64374;51.482;7.408;2023-12-04T16:05:27;6.10;99.90
4356;DHT22;64374;51.482;7.408;2023-12-04T16:08:19;6.20;99.90
4356;DHT22;64374;51.482;7.408;2023-12-04T16:11:06;6.30;99.90
4356;DHT22;64374;51.482;7.408;2023-12-04T16:13:56;6.30;99.90
4356;DHT22;64374;51.482;7.408;2023-12-04T16:16:45;6.30;99.90
4356;DHT22;64374;51.482;7.408;2023-12-04T16:19:33;6.20;99.90
4356;DHT22;64374;51.482;7.408;2023-12-04T16:22:22;6.10;99.90
4356;DHT22;64374;51.482;7.408;2023-12-04T16:25:09;6.10;99.90
4356;DHT22;64374;51.482;7.408;2023-12-04T16:27:56;6.20;99.90
4356;DHT22;64374;51.482;7.408;2023-12-04T16:30:45;6.40;99.90
4356;DHT22;64374;51.482;7.408;2023-12-04T16:33:34;6.00;99.90
4356;DHT22;64374;51.482;7.408;2023-12-04T16:36:20;5.60;99.90
4356;DHT22;64374;51.482;7.408;2023-12-04T16:38:48;6.00;99.90
4356;DHT22;64374;51.482;7.408;2023-12-04T16:41:16;5.80;99.90
4356;DHT22;64374;51.482;7.408;2023-12-04T16:43:44;5.80;99.90
4356;DHT22;64374;51.482;7.408;2023-12-04T16:46:13;5.90;99.90
4356;DHT22;64374;51.482;7.408;2023-12-04T16:48:42;5.70;99.90
4356;DHT22;64374;51.482;7.408;2023-12-04T16:51:32;5.40;99.90
4356;DHT22;64374;51.482;7.408;2023-12-04T16:54:19;5.50;99.90
4356;DHT22;64374;51.482;7.408;2023-12-04T16:57:14;5.70;99.90
4356;DHT22;64374;51.482;7.408;2023-12-04T17:00:00;5.50;99.90
4356;DHT22;64374;51.482;7.408;2023-12-04T17:02:51;5.00;99.90
4356;DHT22;64374;51.482;7.408;2023-12-04T17:05:40;5.30;99.90
4356;DHT22;64374;51.482;7.408;2023-12-04T17:08:27;5.60;99.90
4356;DHT22;64374;51.482;7.408;2023-12-04T17:11:19;5.70;99.90
4356;DHT22;64374;51.482;7.408;2023-12-04T17:14:06;5.50;99.90
4356;DHT22;64374;51.482;7.408;2023-12-04T17:16:52;5.50;99.90
4356;DHT22;64374;51.482;7.408;2023-12-04T17:19:43;5.40;99.90
4356;DHT22;64374;51.482;7.408;2023-12-04T17:22:34;5.60;99.90
4356;DHT22;64374;51.482;7.408;2023-12-04T17:25:22;5.60;99.90
4356;DHT22;64374;51.482;7.408;2023-12-04T17:28:12;5.30;99.90
4356;DHT22;64374;51.482;7.408;2023-12-04T17:31:01;5.70;99.90
4356;DHT22;64374;51.482;7.408;2023-12-04T17:33:52;5.70;99.90
4356;DHT22;64374;51.482;7.408;2023-12-04T17:36:40;5.90;99.90
4356;DHT22;64374;51.482;7.408;2023-12-04T17:39:26;6.10;99.90
4356;DHT22;64374;51.482;7.408;2023-12-04T17:41:55;6.20;99.90
4356;DHT22;64374;51.482;7.408;2023-12-04T17:44:23;6.10;99.90
4356;DHT22;64374;51.482;7.408;2023-12-04T17:46:52;5.80;99.90